sensor_id;sensor_type;location;lat;lon;timestamp;P1;durP1;ratioP1;P2;durP2;ratioP2
815;SDS011;25928;51.062;13.752;2022-10-31T00:00:56;26.43;;;21.87;;
815;SDS011;25928;51.062;13.752;2022-10-31T00:03:23;27.80;;;21.60;;
815;SDS011;25928;51.062;13.752;2022-10-31T00:05:49;29.10;;;22.60;;
815;SDS011;25928;51.062;13.752;2022-10-31T00:08:16;28.53;;;22.70;;
815;SDS011;25928;51.062;13.752;2022-10-31T00:10:42;27.77;;;22.20;;
815;SDS011;25928;51.062;13.752;2022-10-31T00:13:09;28.93;;;22.13;;
815;SDS011;25928;51.062;13.752;2022-10-31T00:15:37;32.00;;;23.00;;
815;SDS011;25928;51.062;13.752;2022-10-31T00:18:04;26.07;;;22.10;;
815;SDS011;25928;51.062;13.752;2022-10-31T00:20:30;31.03;;;22.73;;
815;SDS011;25928;51.062;13.752;2022-10-31T00:23:02;26.87;;;22.13;;
815;SDS011;25928;51.062;13.752;2022-10-31T00:25:32;28.97;;;22.57;;
815;SDS011;25928;51.062;13.752;2022-10-31T00:28:00;31.63;;;23.80;;
815;SDS011;25928;51.062;13.752;2022-10-31T00:30:26;31.70;;;23.70;;
815;SDS011;25928;51.062;13.752;2022-10-31T00:32:51;30.00;;;21.10;;
815;SDS011;25928;51.062;13.752;2022-10-31T00:35:17;29.80;;;22.83;;
815;SDS011;25928;51.062;13.752;2022-10-31T00:37:43;29.13;;;22.80;;
815;SDS011;25928;51.062;13.752;2022-10-31T00:40:08;31.40;;;22.73;;
815;SDS011;25928;51.062;13.752;2022-10-31T00:42:34;32.87;;;22.10;;
815;SDS011;25928;51.062;13.752;2022-10-31T00:45:00;27.57;;;22.50;;
815;SDS011;25928;51.062;13.752;2022-10-31T00:47:26;32.37;;;22.80;;
815;SDS011;25928;51.062;13.752;2022-10-31T00:49:52;29.20;;;21.40;;
815;SDS011;25928;51.062;13.752;2022-10-31T00:52:18;27.60;;;22.07;;
815;SDS011;25928;51.062;13.752;2022-10-31T00:54:43;29.10;;;22.10;;
815;SDS011;25928;51.062;13.752;2022-10-31T00:57:09;29.27;;;21.87;;
815;SDS011;25928;51.062;13.752;2022-10-31T00:59:35;28.60;;;22.10;;
815;SDS011;25928;51.062;13.752;2022-10-31T01:02:00;25.80;;;20.90;;
815;SDS011;25928;51.062;13.752;2022-10-31T01:04:26;26.07;;;22.37;;
815;SDS011;25928;51.062;13.752;2022-10-31T01:06:51;27.43;;;21.27;;
815;SDS011;25928;51.062;13.752;2022-10-31T01:09:17;25.17;;;19.60;;
815;SDS011;25928;51.062;13.752;2022-10-31T01:11:43;27.90;;;20.70;;
815;SDS011;25928;51.062;13.752;2022-10-31T01:14:09;31.70;;;22.87;;
815;SDS011;25928;51.062;13.752;2022-10-31T01:16:35;32.37;;;22.83;;
815;SDS011;25928;51.062;13.752;2022-10-31T01:19:00;30.30;;;20.83;;
815;SDS011;25928;51.062;13.752;2022-10-31T01:21:27;25.00;;;20.27;;
815;SDS011;25928;51.062;13.752;2022-10-31T01:23:54;35.30;;;21.80;;
815;SDS011;25928;51.062;13.752;2022-10-31T01:26:24;26.10;;;21.70;;
815;SDS011;25928;51.062;13.752;2022-10-31T01:31:19;28.90;;;20.20;;
815;SDS011;25928;51.062;13.752;2022-10-31T01:33:46;30.17;;;20.93;;
815;SDS011;25928;51.062;13.752;2022-10-31T01:36:17;29.17;;;21.37;;
815;SDS011;25928;51.062;13.752;2022-10-31T01:38:45;29.13;;;21.63;;
815;SDS011;25928;51.062;13.752;2022-10-31T01:41:13;27.27;;;21.50;;
815;SDS011;25928;51.062;13.752;2022-10-31T01:43:46;23.43;;;19.57;;
815;SDS011;25928;51.062;13.752;2022-10-31T01:46:30;24.97;;;20.73;;
815;SDS011;25928;51.062;13.752;2022-10-31T01:49:13;26.00;;;19.97;;
815;SDS011;25928;51.062;13.752;2022-10-31T01:51:47;27.67;;;20.77;;
815;SDS011;25928;51.062;13.752;2022-10-31T01:54:21;28.00;;;20.50;;
815;SDS011;25928;51.062;13.752;2022-10-31T01:56:49;26.60;;;21.30;;
815;SDS011;25928;51.062;13.752;2022-10-31T01:59:18;25.03;;;19.53;;
815;SDS011;25928;51.062;13.752;2022-10-31T02:01:46;23.23;;;20.13;;
815;SDS011;25928;51.062;13.752;2022-10-31T02:04:13;28.13;;;20.13;;
815;SDS011;25928;51.062;13.752;2022-10-31T02:06:51;26.67;;;20.80;;
815;SDS011;25928;51.062;13.752;2022-10-31T02:09:22;22.43;;;19.30;;
815;SDS011;25928;51.062;13.752;2022-10-31T02:11:53;24.57;;;19.53;;
815;SDS011;25928;51.062;13.752;2022-10-31T02:14:22;23.53;;;19.40;;
815;SDS011;25928;51.062;13.752;2022-10-31T02:16:49;26.43;;;19.00;;
815;SDS011;25928;51.062;13.752;2022-10-31T02:19:17;27.87;;;19.43;;
815;SDS011;25928;51.062;13.752;2022-10-31T02:21:52;25.13;;;19.10;;
815;SDS011;25928;51.062;13.752;2022-10-31T02:27:03;24.90;;;20.03;;
815;SDS011;25928;51.062;13.752;2022-10-31T02:37:49;26.53;;;20.37;;
815;SDS011;25928;51.062;13.752;2022-10-31T02:40:38;24.97;;;19.17;;
815;SDS011;25928;51.062;13.752;2022-10-31T02:43:19;25.37;;;19.00;;
815;SDS011;25928;51.062;13.752;2022-10-31T02:45:57;25.77;;;20.07;;
815;SDS011;25928;51.062;13.752;2022-10-31T02:48:26;24.40;;;20.00;;
815;SDS011;25928;51.062;13.752;2022-10-31T02:51:00;27.73;;;19.33;;
815;SDS011;25928;51.062;13.752;2022-10-31T02:53:31;26.50;;;18.70;;
815;SDS011;25928;51.062;13.752;2022-10-31T02:56:00;22.73;;;18.73;;
815;SDS011;25928;51.062;13.752;2022-10-31T02:58:31;30.77;;;21.03;;
815;SDS011;25928;51.062;13.752;2022-10-31T03:01:22;30.60;;;20.90;;
815;SDS011;25928;51.062;13.752;2022-10-31T03:09:33;21.83;;;17.97;;
815;SDS011;25928;51.062;13.752;2022-10-31T03:12:24;23.50;;;18.90;;
815;SDS011;25928;51.062;13.752;2022-10-31T03:15:04;23.13;;;18.50;;
815;SDS011;25928;51.062;13.752;2022-10-31T03:20:59;26.07;;;18.83;;
815;SDS011;25928;51.062;13.752;2022-10-31T03:23:30;20.93;;;18.30;;
815;SDS011;25928;51.062;13.752;2022-10-31T03:25:59;22.40;;;18.63;;
815;SDS011;25928;51.062;13.752;2022-10-31T03:28:29;19.97;;;17.63;;
815;SDS011;25928;51.062;13.752;2022-10-31T03:30:59;20.23;;;17.10;;
815;SDS011;25928;51.062;13.752;2022-10-31T03:33:28;23.13;;;17.10;;
815;SDS011;25928;51.062;13.752;2022-10-31T03:35:58;20.80;;;16.93;;
815;SDS011;25928;51.062;13.752;2022-10-31T03:38:27;23.13;;;18.10;;
815;SDS011;25928;51.062;13.752;2022-10-31T03:40:54;21.40;;;17.60;;
815;SDS011;25928;51.062;13.752;2022-10-31T03:43:24;24.47;;;16.23;;
815;SDS011;25928;51.062;13.752;2022-10-31T03:45:53;21.37;;;16.90;;
815;SDS011;25928;51.062;13.752;2022-10-31T03:48:19;21.77;;;16.03;;
815;SDS011;25928;51.062;13.752;2022-10-31T03:50:52;19.83;;;16.57;;
815;SDS011;25928;51.062;13.752;2022-10-31T03:53:22;20.63;;;16.03;;
815;SDS011;25928;51.062;13.752;2022-10-31T03:56:01;24.70;;;17.80;;
815;SDS011;25928;51.062;13.752;2022-10-31T03:58:34;18.87;;;16.90;;
815;SDS011;25928;51.062;13.752;2022-10-31T04:01:05;28.63;;;18.00;;
815;SDS011;25928;51.062;13.752;2022-10-31T04:03:34;20.40;;;15.70;;
815;SDS011;25928;51.062;13.752;2022-10-31T04:06:04;17.43;;;14.87;;
815;SDS011;25928;51.062;13.752;2022-10-31T04:08:33;19.63;;;15.00;;
815;SDS011;25928;51.062;13.752;2022-10-31T04:11:05;25.67;;;16.57;;
815;SDS011;25928;51.062;13.752;2022-10-31T04:13:33;20.87;;;16.10;;
815;SDS011;25928;51.062;13.752;2022-10-31T04:16:01;18.53;;;15.50;;
815;SDS011;25928;51.062;13.752;2022-10-31T04:18:27;19.43;;;17.43;;
815;SDS011;25928;51.062;13.752;2022-10-31T04:21:00;22.20;;;17.30;;
815;SDS011;25928;51.062;13.752;2022-10-31T04:23:28;17.80;;;16.00;;
815;SDS011;25928;51.062;13.752;2022-10-31T04:25:54;19.73;;;16.00;;
815;SDS011;25928;51.062;13.752;2022-10-31T04:28:19;19.33;;;16.00;;
815;SDS011;25928;51.062;13.752;2022-10-31T04:30:45;19.13;;;17.07;;
815;SDS011;25928;51.062;13.752;2022-10-31T04:33:10;18.07;;;16.10;;
815;SDS011;25928;51.062;13.752;2022-10-31T04:35:36;19.73;;;16.80;;
815;SDS011;25928;51.062;13.752;2022-10-31T04:38:01;24.10;;;17.23;;
815;SDS011;25928;51.062;13.752;2022-10-31T04:40:27;18.20;;;16.23;;
815;SDS011;25928;51.062;13.752;2022-10-31T04:42:53;17.30;;;15.60;;
815;SDS011;25928;51.062;13.752;2022-10-31T04:45:18;18.23;;;14.63;;
815;SDS011;25928;51.062;13.752;2022-10-31T04:47:44;20.63;;;16.13;;
815;SDS011;25928;51.062;13.752;2022-10-31T04:50:09;17.70;;;15.80;;
815;SDS011;25928;51.062;13.752;2022-10-31T04:52:39;17.77;;;15.83;;
815;SDS011;25928;51.062;13.752;2022-10-31T04:55:05;19.97;;;15.77;;
815;SDS011;25928;51.062;13.752;2022-10-31T04:57:31;22.30;;;16.57;;
815;SDS011;25928;51.062;13.752;2022-10-31T04:59:57;18.77;;;13.97;;
815;SDS011;25928;51.062;13.752;2022-10-31T05:02:23;18.00;;;16.10;;
815;SDS011;25928;51.062;13.752;2022-10-31T05:04:48;17.80;;;15.93;;
815;SDS011;25928;51.062;13.752;2022-10-31T05:07:14;20.20;;;15.40;;
815;SDS011;25928;51.062;13.752;2022-10-31T05:09:39;16.43;;;14.73;;
815;SDS011;25928;51.062;13.752;2022-10-31T05:12:05;20.17;;;15.67;;
815;SDS011;25928;51.062;13.752;2022-10-31T05:14:30;19.30;;;15.27;;
815;SDS011;25928;51.062;13.752;2022-10-31T05:16:56;20.07;;;16.23;;
815;SDS011;25928;51.062;13.752;2022-10-31T05:19:22;21.70;;;15.63;;
815;SDS011;25928;51.062;13.752;2022-10-31T05:21:47;18.20;;;14.73;;
815;SDS011;25928;51.062;13.752;2022-10-31T05:24:13;18.17;;;14.50;;
815;SDS011;25928;51.062;13.752;2022-10-31T05:26:39;17.20;;;14.90;;
815;SDS011;25928;51.062;13.752;2022-10-31T05:29:04;15.70;;;14.00;;
815;SDS011;25928;51.062;13.752;2022-10-31T05:31:30;15.43;;;13.80;;
815;SDS011;25928;51.062;13.752;2022-10-31T05:33:55;16.80;;;14.20;;
815;SDS011;25928;51.062;13.752;2022-10-31T05:36:21;18.53;;;13.70;;
815;SDS011;25928;51.062;13.752;2022-10-31T05:38:47;19.80;;;15.17;;
815;SDS011;25928;51.062;13.752;2022-10-31T05:41:12;18.93;;;14.07;;
815;SDS011;25928;51.062;13.752;2022-10-31T05:43:38;17.27;;;14.70;;
815;SDS011;25928;51.062;13.752;2022-10-31T05:46:03;17.93;;;14.87;;
815;SDS011;25928;51.062;13.752;2022-10-31T05:48:29;15.17;;;13.63;;
815;SDS011;25928;51.062;13.752;2022-10-31T05:50:54;18.30;;;14.23;;
815;SDS011;25928;51.062;13.752;2022-10-31T05:53:20;18.93;;;13.77;;
815;SDS011;25928;51.062;13.752;2022-10-31T05:55:46;16.00;;;13.60;;
815;SDS011;25928;51.062;13.752;2022-10-31T05:58:11;15.53;;;13.73;;
815;SDS011;25928;51.062;13.752;2022-10-31T06:00:37;15.93;;;14.20;;
815;SDS011;25928;51.062;13.752;2022-10-31T06:03:07;15.20;;;13.60;;
815;SDS011;25928;51.062;13.752;2022-10-31T06:05:34;20.37;;;15.57;;
815;SDS011;25928;51.062;13.752;2022-10-31T06:08:00;16.67;;;13.20;;
815;SDS011;25928;51.062;13.752;2022-10-31T06:10:25;16.37;;;13.50;;
815;SDS011;25928;51.062;13.752;2022-10-31T06:12:51;16.30;;;13.90;;
815;SDS011;25928;51.062;13.752;2022-10-31T06:15:17;14.27;;;12.87;;
815;SDS011;25928;51.062;13.752;2022-10-31T06:17:43;15.97;;;13.77;;
815;SDS011;25928;51.062;13.752;2022-10-31T06:20:08;16.53;;;12.33;;
815;SDS011;25928;51.062;13.752;2022-10-31T06:22:35;16.00;;;13.93;;
815;SDS011;25928;51.062;13.752;2022-10-31T06:25:00;13.83;;;12.60;;
815;SDS011;25928;51.062;13.752;2022-10-31T06:27:26;15.03;;;13.40;;
815;SDS011;25928;51.062;13.752;2022-10-31T06:29:52;16.37;;;14.67;;
815;SDS011;25928;51.062;13.752;2022-10-31T06:32:17;16.80;;;14.77;;
815;SDS011;25928;51.062;13.752;2022-10-31T06:34:44;16.63;;;14.40;;
815;SDS011;25928;51.062;13.752;2022-10-31T06:37:12;16.27;;;14.07;;
815;SDS011;25928;51.062;13.752;2022-10-31T06:39:38;15.40;;;13.83;;
815;SDS011;25928;51.062;13.752;2022-10-31T06:42:04;19.23;;;14.17;;
815;SDS011;25928;51.062;13.752;2022-10-31T06:44:30;19.47;;;15.33;;
815;SDS011;25928;51.062;13.752;2022-10-31T06:46:59;15.90;;;14.20;;
815;SDS011;25928;51.062;13.752;2022-10-31T06:49:24;26.60;;;16.33;;
815;SDS011;25928;51.062;13.752;2022-10-31T06:51:50;16.13;;;14.43;;
815;SDS011;25928;51.062;13.752;2022-10-31T06:54:15;16.40;;;13.73;;
815;SDS011;25928;51.062;13.752;2022-10-31T06:56:41;15.47;;;13.83;;
815;SDS011;25928;51.062;13.752;2022-10-31T06:59:07;16.33;;;14.33;;
815;SDS011;25928;51.062;13.752;2022-10-31T07:01:33;15.07;;;13.67;;
815;SDS011;25928;51.062;13.752;2022-10-31T07:03:58;15.20;;;12.43;;
815;SDS011;25928;51.062;13.752;2022-10-31T07:06:24;15.77;;;13.70;;
815;SDS011;25928;51.062;13.752;2022-10-31T07:08:49;17.37;;;12.37;;
815;SDS011;25928;51.062;13.752;2022-10-31T07:11:15;14.70;;;13.23;;
815;SDS011;25928;51.062;13.752;2022-10-31T07:13:41;13.60;;;12.20;;
815;SDS011;25928;51.062;13.752;2022-10-31T07:16:06;14.30;;;12.53;;
815;SDS011;25928;51.062;13.752;2022-10-31T07:18:32;15.17;;;12.70;;
815;SDS011;25928;51.062;13.752;2022-10-31T07:20:59;14.43;;;12.80;;
815;SDS011;25928;51.062;13.752;2022-10-31T07:23:24;13.47;;;12.07;;
815;SDS011;25928;51.062;13.752;2022-10-31T07:25:54;15.60;;;12.50;;
815;SDS011;25928;51.062;13.752;2022-10-31T07:28:21;14.20;;;12.83;;
815;SDS011;25928;51.062;13.752;2022-10-31T07:30:50;16.30;;;11.90;;
815;SDS011;25928;51.062;13.752;2022-10-31T07:33:16;13.47;;;12.27;;
815;SDS011;25928;51.062;13.752;2022-10-31T07:35:42;13.53;;;12.13;;
815;SDS011;25928;51.062;13.752;2022-10-31T07:38:08;15.00;;;12.27;;
815;SDS011;25928;51.062;13.752;2022-10-31T07:40:37;13.83;;;12.53;;
815;SDS011;25928;51.062;13.752;2022-10-31T07:43:03;13.27;;;11.93;;
815;SDS011;25928;51.062;13.752;2022-10-31T07:45:29;13.50;;;12.20;;
815;SDS011;25928;51.062;13.752;2022-10-31T07:47:55;13.10;;;11.80;;
815;SDS011;25928;51.062;13.752;2022-10-31T07:50:24;13.47;;;12.07;;
815;SDS011;25928;51.062;13.752;2022-10-31T07:53:01;13.70;;;12.37;;
815;SDS011;25928;51.062;13.752;2022-10-31T07:55:31;12.03;;;10.83;;
815;SDS011;25928;51.062;13.752;2022-10-31T07:58:03;13.30;;;11.80;;
815;SDS011;25928;51.062;13.752;2022-10-31T08:00:31;12.50;;;11.20;;
815;SDS011;25928;51.062;13.752;2022-10-31T08:03:01;16.40;;;12.67;;
815;SDS011;25928;51.062;13.752;2022-10-31T08:05:27;12.43;;;11.30;;
815;SDS011;25928;51.062;13.752;2022-10-31T08:07:53;13.40;;;11.60;;
815;SDS011;25928;51.062;13.752;2022-10-31T08:10:20;12.67;;;11.40;;
815;SDS011;25928;51.062;13.752;2022-10-31T08:12:46;12.47;;;11.27;;
815;SDS011;25928;51.062;13.752;2022-10-31T08:15:12;12.20;;;10.87;;
815;SDS011;25928;51.062;13.752;2022-10-31T08:17:38;11.57;;;10.47;;
815;SDS011;25928;51.062;13.752;2022-10-31T08:20:04;11.80;;;10.60;;
815;SDS011;25928;51.062;13.752;2022-10-31T08:22:30;12.30;;;11.20;;
815;SDS011;25928;51.062;13.752;2022-10-31T08:24:56;12.13;;;11.03;;
815;SDS011;25928;51.062;13.752;2022-10-31T08:27:22;11.27;;;10.30;;
815;SDS011;25928;51.062;13.752;2022-10-31T08:29:47;11.47;;;10.30;;
815;SDS011;25928;51.062;13.752;2022-10-31T08:32:13;11.10;;;10.00;;
815;SDS011;25928;51.062;13.752;2022-10-31T08:34:39;11.77;;;10.57;;
815;SDS011;25928;51.062;13.752;2022-10-31T08:37:04;12.97;;;11.77;;
815;SDS011;25928;51.062;13.752;2022-10-31T08:39:30;13.33;;;11.50;;
815;SDS011;25928;51.062;13.752;2022-10-31T08:41:56;13.07;;;11.77;;
815;SDS011;25928;51.062;13.752;2022-10-31T08:44:22;12.17;;;11.00;;
815;SDS011;25928;51.062;13.752;2022-10-31T08:46:49;11.37;;;10.27;;
815;SDS011;25928;51.062;13.752;2022-10-31T08:49:14;12.57;;;11.37;;
815;SDS011;25928;51.062;13.752;2022-10-31T08:51:40;12.67;;;10.80;;
815;SDS011;25928;51.062;13.752;2022-10-31T08:54:05;13.93;;;12.57;;
815;SDS011;25928;51.062;13.752;2022-10-31T08:56:31;12.80;;;11.40;;
815;SDS011;25928;51.062;13.752;2022-10-31T08:58:57;13.17;;;10.23;;
815;SDS011;25928;51.062;13.752;2022-10-31T09:01:22;12.13;;;11.10;;
815;SDS011;25928;51.062;13.752;2022-10-31T09:03:48;11.10;;;10.10;;
815;SDS011;25928;51.062;13.752;2022-10-31T09:06:13;12.43;;;9.53;;
815;SDS011;25928;51.062;13.752;2022-10-31T09:08:39;14.00;;;10.70;;
815;SDS011;25928;51.062;13.752;2022-10-31T09:11:05;11.93;;;10.57;;
815;SDS011;25928;51.062;13.752;2022-10-31T09:13:31;14.63;;;10.57;;
815;SDS011;25928;51.062;13.752;2022-10-31T09:15:57;12.20;;;11.00;;
815;SDS011;25928;51.062;13.752;2022-10-31T09:18:25;11.20;;;10.20;;
815;SDS011;25928;51.062;13.752;2022-10-31T09:20:56;13.13;;;11.03;;
815;SDS011;25928;51.062;13.752;2022-10-31T09:23:23;12.63;;;10.60;;
815;SDS011;25928;51.062;13.752;2022-10-31T09:25:49;10.83;;;9.93;;
815;SDS011;25928;51.062;13.752;2022-10-31T09:28:17;11.60;;;9.00;;
815;SDS011;25928;51.062;13.752;2022-10-31T09:30:46;15.63;;;10.20;;
815;SDS011;25928;51.062;13.752;2022-10-31T09:33:12;10.80;;;9.70;;
815;SDS011;25928;51.062;13.752;2022-10-31T09:35:39;10.53;;;9.50;;
815;SDS011;25928;51.062;13.752;2022-10-31T09:38:06;11.73;;;10.40;;
815;SDS011;25928;51.062;13.752;2022-10-31T09:40:41;13.07;;;10.50;;
815;SDS011;25928;51.062;13.752;2022-10-31T09:45:47;10.33;;;9.33;;
815;SDS011;25928;51.062;13.752;2022-10-31T09:51:06;10.30;;;9.00;;
815;SDS011;25928;51.062;13.752;2022-10-31T09:56:05;9.80;;;8.77;;
815;SDS011;25928;51.062;13.752;2022-10-31T09:58:34;9.53;;;8.53;;
815;SDS011;25928;51.062;13.752;2022-10-31T10:01:42;10.33;;;8.23;;
815;SDS011;25928;51.062;13.752;2022-10-31T10:04:12;8.93;;;7.83;;
815;SDS011;25928;51.062;13.752;2022-10-31T10:06:56;10.33;;;8.70;;
815;SDS011;25928;51.062;13.752;2022-10-31T10:09:25;10.73;;;8.63;;
815;SDS011;25928;51.062;13.752;2022-10-31T10:11:59;10.10;;;8.13;;
815;SDS011;25928;51.062;13.752;2022-10-31T10:17:50;10.33;;;8.47;;
815;SDS011;25928;51.062;13.752;2022-10-31T10:25:43;10.30;;;8.40;;
815;SDS011;25928;51.062;13.752;2022-10-31T10:28:19;8.30;;;7.50;;
815;SDS011;25928;51.062;13.752;2022-10-31T10:31:09;8.50;;;7.70;;
815;SDS011;25928;51.062;13.752;2022-10-31T10:33:36;8.83;;;7.40;;
815;SDS011;25928;51.062;13.752;2022-10-31T10:36:18;8.63;;;7.80;;
815;SDS011;25928;51.062;13.752;2022-10-31T10:38:55;9.00;;;7.80;;
815;SDS011;25928;51.062;13.752;2022-10-31T10:41:32;12.93;;;8.13;;
815;SDS011;25928;51.062;13.752;2022-10-31T10:43:58;10.60;;;7.43;;
815;SDS011;25928;51.062;13.752;2022-10-31T10:46:43;8.47;;;7.30;;
815;SDS011;25928;51.062;13.752;2022-10-31T10:49:50;12.60;;;7.40;;
815;SDS011;25928;51.062;13.752;2022-10-31T11:03:01;9.53;;;7.70;;
815;SDS011;25928;51.062;13.752;2022-10-31T11:05:30;12.00;;;8.10;;
815;SDS011;25928;51.062;13.752;2022-10-31T11:08:01;10.17;;;7.80;;
815;SDS011;25928;51.062;13.752;2022-10-31T11:10:27;8.67;;;7.77;;
815;SDS011;25928;51.062;13.752;2022-10-31T11:13:35;9.70;;;8.30;;
815;SDS011;25928;51.062;13.752;2022-10-31T11:18:28;12.30;;;8.17;;
815;SDS011;25928;51.062;13.752;2022-10-31T11:20:56;10.17;;;7.40;;
815;SDS011;25928;51.062;13.752;2022-10-31T11:23:25;12.00;;;8.97;;
815;SDS011;25928;51.062;13.752;2022-10-31T11:28:21;14.13;;;9.87;;
815;SDS011;25928;51.062;13.752;2022-10-31T11:30:54;15.83;;;9.57;;
815;SDS011;25928;51.062;13.752;2022-10-31T11:36:03;16.80;;;11.00;;
815;SDS011;25928;51.062;13.752;2022-10-31T11:38:45;14.83;;;10.47;;
815;SDS011;25928;51.062;13.752;2022-10-31T11:41:12;17.00;;;11.73;;
815;SDS011;25928;51.062;13.752;2022-10-31T11:43:51;16.77;;;11.53;;
815;SDS011;25928;51.062;13.752;2022-10-31T11:46:30;18.60;;;12.50;;
815;SDS011;25928;51.062;13.752;2022-10-31T11:48:59;19.07;;;12.53;;
815;SDS011;25928;51.062;13.752;2022-10-31T11:51:30;16.77;;;11.23;;
815;SDS011;25928;51.062;13.752;2022-10-31T11:53:58;23.90;;;11.70;;
815;SDS011;25928;51.062;13.752;2022-10-31T11:56:27;13.37;;;10.10;;
815;SDS011;25928;51.062;13.752;2022-10-31T11:59:12;15.70;;;10.73;;
815;SDS011;25928;51.062;13.752;2022-10-31T12:01:46;14.13;;;9.60;;
815;SDS011;25928;51.062;13.752;2022-10-31T12:04:13;14.40;;;9.77;;
815;SDS011;25928;51.062;13.752;2022-10-31T12:06:42;20.63;;;10.60;;
815;SDS011;25928;51.062;13.752;2022-10-31T12:25:37;11.67;;;8.80;;
815;SDS011;25928;51.062;13.752;2022-10-31T12:33:38;16.07;;;10.63;;
815;SDS011;25928;51.062;13.752;2022-10-31T12:42:00;9.33;;;8.40;;
815;SDS011;25928;51.062;13.752;2022-10-31T12:53:14;13.43;;;8.33;;
815;SDS011;25928;51.062;13.752;2022-10-31T12:56:02;12.20;;;8.43;;
815;SDS011;25928;51.062;13.752;2022-10-31T12:58:52;15.57;;;8.60;;
815;SDS011;25928;51.062;13.752;2022-10-31T13:01:39;17.97;;;7.40;;
815;SDS011;25928;51.062;13.752;2022-10-31T13:04:47;14.43;;;7.40;;
815;SDS011;25928;51.062;13.752;2022-10-31T13:07:13;9.00;;;7.40;;
815;SDS011;25928;51.062;13.752;2022-10-31T13:10:07;10.00;;;7.83;;
815;SDS011;25928;51.062;13.752;2022-10-31T13:12:42;14.10;;;7.00;;
815;SDS011;25928;51.062;13.752;2022-10-31T13:15:18;12.70;;;8.30;;
815;SDS011;25928;51.062;13.752;2022-10-31T13:18:05;13.57;;;7.50;;
815;SDS011;25928;51.062;13.752;2022-10-31T13:20:40;12.80;;;7.93;;
815;SDS011;25928;51.062;13.752;2022-10-31T13:26:00;7.30;;;6.57;;
815;SDS011;25928;51.062;13.752;2022-10-31T13:28:48;12.50;;;8.53;;
815;SDS011;25928;51.062;13.752;2022-10-31T13:31:26;13.63;;;6.83;;
815;SDS011;25928;51.062;13.752;2022-10-31T13:34:03;10.60;;;8.07;;
815;SDS011;25928;51.062;13.752;2022-10-31T13:42:21;12.63;;;6.93;;
815;SDS011;25928;51.062;13.752;2022-10-31T13:44:55;9.90;;;7.30;;
815;SDS011;25928;51.062;13.752;2022-10-31T13:49:50;7.77;;;6.80;;
815;SDS011;25928;51.062;13.752;2022-10-31T13:52:22;9.77;;;7.70;;
815;SDS011;25928;51.062;13.752;2022-10-31T13:54:50;11.17;;;7.00;;
815;SDS011;25928;51.062;13.752;2022-10-31T13:59:53;9.83;;;6.97;;
815;SDS011;25928;51.062;13.752;2022-10-31T14:02:25;11.93;;;6.90;;
815;SDS011;25928;51.062;13.752;2022-10-31T14:05:03;9.40;;;6.27;;
815;SDS011;25928;51.062;13.752;2022-10-31T14:07:31;10.40;;;6.70;;
815;SDS011;25928;51.062;13.752;2022-10-31T14:10:05;9.13;;;6.20;;
815;SDS011;25928;51.062;13.752;2022-10-31T14:12:45;13.67;;;5.93;;
815;SDS011;25928;51.062;13.752;2022-10-31T14:15:16;7.60;;;6.80;;
815;SDS011;25928;51.062;13.752;2022-10-31T14:20:31;9.90;;;6.90;;
815;SDS011;25928;51.062;13.752;2022-10-31T14:23:10;11.60;;;7.30;;
815;SDS011;25928;51.062;13.752;2022-10-31T14:26:05;9.80;;;6.20;;
815;SDS011;25928;51.062;13.752;2022-10-31T14:36:55;11.93;;;7.23;;
815;SDS011;25928;51.062;13.752;2022-10-31T14:39:24;8.23;;;6.93;;
815;SDS011;25928;51.062;13.752;2022-10-31T14:42:13;11.13;;;6.90;;
815;SDS011;25928;51.062;13.752;2022-10-31T14:52:47;15.17;;;7.20;;
815;SDS011;25928;51.062;13.752;2022-10-31T14:55:15;15.87;;;7.37;;
815;SDS011;25928;51.062;13.752;2022-10-31T14:58:01;12.00;;;7.40;;
815;SDS011;25928;51.062;13.752;2022-10-31T15:00:31;12.83;;;7.93;;
815;SDS011;25928;51.062;13.752;2022-10-31T15:05:31;14.73;;;7.40;;
815;SDS011;25928;51.062;13.752;2022-10-31T15:07:59;7.13;;;5.93;;
815;SDS011;25928;51.062;13.752;2022-10-31T15:10:31;10.73;;;7.40;;
815;SDS011;25928;51.062;13.752;2022-10-31T15:13:09;10.40;;;7.37;;
815;SDS011;25928;51.062;13.752;2022-10-31T15:15:43;11.80;;;8.90;;
815;SDS011;25928;51.062;13.752;2022-10-31T15:21:26;16.67;;;8.57;;
815;SDS011;25928;51.062;13.752;2022-10-31T15:23:53;9.33;;;6.90;;
815;SDS011;25928;51.062;13.752;2022-10-31T15:26:26;10.87;;;7.57;;
815;SDS011;25928;51.062;13.752;2022-10-31T15:29:10;11.37;;;8.30;;
815;SDS011;25928;51.062;13.752;2022-10-31T15:31:37;13.00;;;8.17;;
815;SDS011;25928;51.062;13.752;2022-10-31T15:34:05;10.53;;;7.60;;
815;SDS011;25928;51.062;13.752;2022-10-31T15:36:40;9.43;;;8.50;;
815;SDS011;25928;51.062;13.752;2022-10-31T15:39:09;9.43;;;8.33;;
815;SDS011;25928;51.062;13.752;2022-10-31T15:41:39;15.67;;;9.77;;
815;SDS011;25928;51.062;13.752;2022-10-31T15:47:04;13.73;;;9.63;;
815;SDS011;25928;51.062;13.752;2022-10-31T15:49:37;17.03;;;10.43;;
815;SDS011;25928;51.062;13.752;2022-10-31T15:55:24;16.60;;;10.07;;
815;SDS011;25928;51.062;13.752;2022-10-31T15:57:57;11.97;;;8.37;;
815;SDS011;25928;51.062;13.752;2022-10-31T16:00:33;10.73;;;9.47;;
815;SDS011;25928;51.062;13.752;2022-10-31T16:03:04;12.67;;;8.80;;
815;SDS011;25928;51.062;13.752;2022-10-31T16:05:43;12.17;;;9.60;;
815;SDS011;25928;51.062;13.752;2022-10-31T16:08:31;15.97;;;12.57;;
815;SDS011;25928;51.062;13.752;2022-10-31T16:14:22;30.57;;;26.23;;
815;SDS011;25928;51.062;13.752;2022-10-31T16:16:48;26.23;;;21.27;;
815;SDS011;25928;51.062;13.752;2022-10-31T16:19:20;28.43;;;24.03;;
815;SDS011;25928;51.062;13.752;2022-10-31T16:21:50;32.93;;;26.67;;
815;SDS011;25928;51.062;13.752;2022-10-31T16:24:26;31.50;;;23.23;;
815;SDS011;25928;51.062;13.752;2022-10-31T16:26:54;36.50;;;31.30;;
815;SDS011;25928;51.062;13.752;2022-10-31T16:29:34;44.33;;;37.23;;
815;SDS011;25928;51.062;13.752;2022-10-31T16:32:01;42.30;;;35.70;;
815;SDS011;25928;51.062;13.752;2022-10-31T16:34:27;41.40;;;34.20;;
815;SDS011;25928;51.062;13.752;2022-10-31T16:36:53;32.40;;;27.27;;
815;SDS011;25928;51.062;13.752;2022-10-31T16:39:18;29.77;;;26.20;;
815;SDS011;25928;51.062;13.752;2022-10-31T16:41:45;37.87;;;28.60;;
815;SDS011;25928;51.062;13.752;2022-10-31T16:44:30;40.30;;;35.43;;
815;SDS011;25928;51.062;13.752;2022-10-31T16:47:09;29.80;;;26.00;;
815;SDS011;25928;51.062;13.752;2022-10-31T16:49:38;30.60;;;23.40;;
815;SDS011;25928;51.062;13.752;2022-10-31T16:52:03;23.77;;;20.00;;
815;SDS011;25928;51.062;13.752;2022-10-31T16:54:30;26.87;;;21.20;;
815;SDS011;25928;51.062;13.752;2022-10-31T16:56:57;20.50;;;18.17;;
815;SDS011;25928;51.062;13.752;2022-10-31T16:59:24;19.33;;;17.40;;
815;SDS011;25928;51.062;13.752;2022-10-31T17:01:51;20.53;;;18.30;;
815;SDS011;25928;51.062;13.752;2022-10-31T17:04:17;18.20;;;15.10;;
815;SDS011;25928;51.062;13.752;2022-10-31T17:06:42;18.53;;;15.40;;
815;SDS011;25928;51.062;13.752;2022-10-31T17:09:08;21.77;;;15.97;;
815;SDS011;25928;51.062;13.752;2022-10-31T17:11:34;23.00;;;17.03;;
815;SDS011;25928;51.062;13.752;2022-10-31T17:14:00;17.87;;;14.80;;
815;SDS011;25928;51.062;13.752;2022-10-31T17:16:26;20.30;;;14.40;;